Andover, OH (44003)

1:03 PM EST on December 03, 2016 (GMT -0500)
Maple Grove (Sunset Knolls) | | Change Station

Elev 1033 ft 41.59 °N, 80.50 °W | Updated 28 seconds ago

Overcast
Overcast
39.9 °F
Feels Like 36 °F
N
6.0
Wind Variable Wind from WNW

Today
High -- | Low -- °F
--% Chance of Precip.
Yesterday
High -- | Low -- °F
Precip. -- in
Pressure 30.25 in
Visibility 10.0 miles
Clouds Mostly Cloudy 1900 ft
Overcast 3000 ft
Windchill 36 °F
Dew Point 34 °F
Humidity 81%
Rainfall 0.00 in
Snow Depth Not available.
7:32 AM 4:52 PM
Waxing Crescent, 16% visible
METAR KHZY 031753Z AUTO 28009KT 10SM BKN019 OVC030 04/01 A3023 RMK AO2 SLP242 T00390011 10039 20033 58017
Pressure 30.25 in
Visibility 10.0 miles
Clouds Mostly Cloudy 1900 ft
Overcast 3000 ft
Windchill 36 °F
Dew Point 34 °F
Humidity 81%
Rainfall 0.00 in
Snow Depth Not available.
7:32 AM 4:52 PM
Waxing Crescent, 16% visible
METAR KHZY 031753Z AUTO 28009KT 10SM BKN019 OVC030 04/01 A3023 RMK AO2 SLP242 T00390011 10039 20033 58017

10-Day Weather Forecast

Almanac

Astronomy

Dec. 03, 2016 Rise Set
Actual Time
Civil Twilight
Nautical Twilight
Astronomical Twilight
Moon
Length of Visible Light
Length of Day
Tomorrow will be .
, % of the Moon is Illuminated

Today's Extremes

State Highs State Lows

Community

WunderPhotos

Upload Photos

1,955,455 photos uploaded!

WunderBlog® & News

Nearby

Air Quality

  Air Quality AQ Index Pollutant
Not available.

Snow Depth

Station Depth Elevation

Earthquake Activity

City Distance Mag. Time & Date
Minimum magnitude displayed is 2.5.

Coastal Water Temperatures

Place Temperature

Stations

Nearby Weather Stations

Station Location Temp. Windchill Dew Point Humidity Wind Precip. Elev Updated Type
                   

Watches & Warnings

There are currently no watches in effect.